Time;durP1;ratioP1;P1;durP2;ratioP2;P2;SDS_P1;SDS_P2;PMS_P1;PMS_P2;Temp;Humidity;BMP_temperature;BMP_pressure;BME280_temperature;BME280_humidity;BME280_pressure;Samples;Min_cycle;Max_cycle;Signal;HPM_P1;HPM_P2
2022/11/04 00:01:05;;;;;;;0.00;0.00;;;11.60;99.90;;;;;;5049792;28;20044;-65
2022/11/04 00:03:30;;;;;;;0.10;0.10;;;11.60;99.90;;;;;;5057566;28;20056;-65
2022/11/04 00:06:00;;;;;;;0.10;0.10;;;11.50;99.90;;;;;;5049641;28;20053;-65
2022/11/04 00:08:25;;;;;;;0.32;0.32;;;11.50;99.90;;;;;;5049558;28;20044;-65
2022/11/04 00:13:42;;;;;;;0.10;0.10;;;11.50;99.90;;;;;;5031723;28;20136;-64
2022/11/04 00:18:53;;;;;;;0.10;0.10;;;11.50;99.90;;;;;;5049907;28;20068;-65
2022/11/04 00:29:32;;;;;;;0.10;0.10;;;11.50;99.90;;;;;;5049864;28;20122;-65
2022/11/04 00:34:42;;;;;;;0.10;0.10;;;11.40;99.90;;;;;;5057625;28;20053;-65
2022/11/04 00:37:07;;;;;;;0.10;0.10;;;11.50;99.90;;;;;;5057004;28;20048;-65
2022/11/04 00:39:33;;;;;;;0.00;0.00;;;11.40;99.90;;;;;;5050997;28;20056;-65
2022/11/04 00:41:58;;;;;;;0.10;0.10;;;11.40;99.90;;;;;;5049542;28;20044;-65
2022/11/04 00:44:24;;;;;;;0.10;0.10;;;11.50;99.90;;;;;;5049671;28;20041;-65
2022/11/04 00:46:49;;;;;;;0.00;0.00;;;11.50;99.90;;;;;;5066315;28;20037;-65
2022/11/04 00:49:15;;;;;;;0.10;0.10;;;11.50;99.90;;;;;;5035019;28;20480;-65
2022/11/04 00:51:40;;;;;;;10.05;0.95;;;11.50;99.90;;;;;;5060087;28;20040;-65
2022/11/04 00:54:06;;;;;;;0.10;0.10;;;11.40;99.90;;;;;;5051328;28;20049;-65
2022/11/04 00:56:32;;;;;;;0.00;0.00;;;11.40;99.90;;;;;;5071308;28;20041;-65
2022/11/04 00:59:00;;;;;;;0.10;0.10;;;11.40;99.90;;;;;;5073801;28;20135;-65
2022/11/04 01:01:26;;;;;;;0.50;0.50;;;11.40;99.90;;;;;;5063986;28;20099;-65
2022/11/04 01:03:52;;;;;;;0.00;0.00;;;11.40;99.90;;;;;;5036855;28;20080;-65
2022/11/04 01:06:21;;;;;;;0.10;0.10;;;11.40;99.90;;;;;;5053416;28;20403;-65
2022/11/04 01:08:47;;;;;;;0.10;0.10;;;11.50;99.90;;;;;;5053713;28;20056;-65
2022/11/04 01:11:13;;;;;;;1.10;0.68;;;11.40;99.90;;;;;;5061456;28;20049;-66
2022/11/04 01:13:39;;;;;;;0.10;0.10;;;11.40;99.90;;;;;;5054198;28;20033;-65
2022/11/04 01:16:07;;;;;;;0.10;0.10;;;11.40;99.90;;;;;;5064274;28;20041;-65
2022/11/04 01:18:33;;;;;;;0.10;0.10;;;11.40;99.90;;;;;;5053344;28;20040;-65
2022/11/04 01:21:07;;;;;;;0.10;0.10;;;11.40;99.90;;;;;;5057059;28;20039;-65
2022/11/04 01:23:35;;;;;;;0.10;0.10;;;11.40;99.90;;;;;;5072467;28;20661;-65
2022/11/04 01:26:08;;;;;;;0.10;0.10;;;11.40;99.90;;;;;;5048867;28;20048;-65
2022/11/04 01:28:34;;;;;;;0.00;0.00;;;11.40;99.90;;;;;;5064636;28;20059;-65
2022/11/04 01:31:05;;;;;;;0.10;0.10;;;11.40;99.90;;;;;;5065733;28;20051;-65
2022/11/04 01:33:30;;;;;;;3.92;2.28;;;11.50;99.90;;;;;;5055726;28;20063;-65
2022/11/04 01:35:59;;;;;;;0.10;0.10;;;11.40;99.90;;;;;;5052657;28;20040;-65
2022/11/04 01:38:25;;;;;;;0.10;0.10;;;11.40;99.90;;;;;;5033722;28;20106;-65
2022/11/04 01:40:50;;;;;;;0.10;0.10;;;11.40;99.90;;;;;;5053152;28;20496;-65
2022/11/04 01:43:19;;;;;;;0.10;0.10;;;11.40;99.90;;;;;;5055109;28;20035;-65
2022/11/04 01:45:52;;;;;;;0.10;0.10;;;11.40;99.90;;;;;;5063221;28;20053;-65
2022/11/04 01:48:25;;;;;;;0.00;0.00;;;11.40;99.90;;;;;;5052392;28;20047;-65
2022/11/04 01:50:52;;;;;;;;;;;11.40;99.90;;;;;;5053368;28;20064;-65
2022/11/04 01:53:26;;;;;;;0.10;0.10;;;11.40;99.90;;;;;;5050768;28;19920;-65
2022/11/04 01:55:56;;;;;;;0.10;0.10;;;11.40;99.90;;;;;;5062904;28;20062;-65
2022/11/04 01:58:25;;;;;;;0.10;0.10;;;11.40;99.90;;;;;;5067122;28;20076;-65
2022/11/04 02:00:51;;;;;;;0.10;0.10;;;11.40;99.90;;;;;;5062834;28;20045;-65
2022/11/04 02:03:25;;;;;;;0.10;0.10;;;11.40;99.90;;;;;;5061900;28;20127;-65
2022/11/04 02:05:51;;;;;;;0.00;0.00;;;11.40;99.90;;;;;;5051601;28;20063;-65
2022/11/04 02:08:17;;;;;;;0.10;0.10;;;11.40;99.90;;;;;;5051708;28;20048;-65
2022/11/04 02:10:56;;;;;;;0.10;0.10;;;11.40;99.90;;;;;;5034392;28;20040;-65
2022/11/04 02:13:22;;;;;;;0.10;0.10;;;11.40;99.90;;;;;;5050697;28;20095;-65
2022/11/04 02:15:54;;;;;;;0.10;0.10;;;11.40;99.90;;;;;;5056571;28;20033;-65
2022/11/04 02:18:43;;;;;;;0.10;0.10;;;11.40;99.90;;;;;;5071615;28;20131;-65
2022/11/04 02:21:17;;;;;;;0.10;0.10;;;11.40;99.90;;;;;;5071394;28;20041;-65
2022/11/04 02:24:07;;;;;;;0.10;0.10;;;11.40;99.90;;;;;;5063848;28;20048;-65
2022/11/04 02:27:05;;;;;;;0.10;0.10;;;11.40;99.90;;;;;;5051559;28;20051;-65
2022/11/04 02:29:34;;;;;;;0.10;0.10;;;11.40;99.90;;;;;;5052677;28;20455;-65
2022/11/04 02:32:11;;;;;;;0.10;0.10;;;11.30;99.90;;;;;;5052776;28;20056;-65
2022/11/04 02:34:54;;;;;;;0.65;0.65;;;11.30;99.90;;;;;;5060241;28;20051;-65
2022/11/04 02:37:44;;;;;;;0.10;0.10;;;11.30;99.90;;;;;;5071627;28;20052;-65
2022/11/04 02:40:37;;;;;;;0.10;0.10;;;11.30;99.90;;;;;;5052762;28;20507;-65
2022/11/04 02:43:14;;;;;;;0.10;0.10;;;11.30;99.90;;;;;;5070418;28;20040;-64
2022/11/04 02:45:49;;;;;;;0.10;0.10;;;11.40;99.90;;;;;;5041967;28;20215;-65
2022/11/04 02:48:19;;;;;;;0.10;0.10;;;11.30;99.90;;;;;;5070865;28;20380;-65
2022/11/04 02:50:52;;;;;;;0.10;0.10;;;11.30;99.90;;;;;;5055511;28;20103;-65
2022/11/04 02:53:40;;;;;;;0.10;0.10;;;11.30;99.90;;;;;;5060500;28;20055;-65
2022/11/04 02:56:07;;;;;;;0.08;0.08;;;11.30;99.90;;;;;;5058976;28;20040;-65
2022/11/04 02:58:38;;;;;;;0.10;0.10;;;11.30;99.90;;;;;;5055485;28;20044;-65
2022/11/04 03:01:06;;;;;;;0.00;0.00;;;11.30;99.90;;;;;;5058005;28;20048;-65
2022/11/04 03:03:37;;;;;;;0.10;0.10;;;11.30;99.90;;;;;;5060424;28;20041;-65
2022/11/04 03:06:05;;;;;;;0.10;0.10;;;11.30;99.90;;;;;;5056195;28;20044;-65
2022/11/04 03:08:34;;;;;;;0.30;0.30;;;11.30;99.90;;;;;;5071337;28;20113;-65
2022/11/04 03:11:22;;;;;;;2.28;1.05;;;11.30;99.90;;;;;;5069173;28;20052;-65
2022/11/04 03:14:06;;;;;;;0.00;0.00;;;11.20;99.90;;;;;;5050326;28;20093;-65
2022/11/04 03:16:43;;;;;;;0.10;0.10;;;11.20;99.90;;;;;;5055526;28;20119;-65
2022/11/04 03:19:39;;;;;;;0.10;0.10;;;11.20;99.90;;;;;;5051875;28;20067;-65
2022/11/04 03:22:13;;;;;;;0.00;0.00;;;11.20;99.90;;;;;;5053413;28;20052;-64
2022/11/04 03:24:40;;;;;;;0.00;0.00;;;11.10;99.90;;;;;;5050104;28;20507;-65
2022/11/04 03:27:23;;;;;;;0.10;0.10;;;11.10;99.90;;;;;;5059926;28;20528;-65
2022/11/04 03:30:03;;;;;;;0.00;0.00;;;11.10;99.90;;;;;;5052384;28;20052;-65
2022/11/04 03:32:38;;;;;;;0.10;0.10;;;11.10;99.90;;;;;;5058877;28;20056;-64
2022/11/04 03:35:05;;;;;;;0.10;0.10;;;11.10;99.90;;;;;;5052718;28;20076;-65
2022/11/04 03:37:31;;;;;;;0.00;0.00;;;11.10;99.90;;;;;;5051092;28;20037;-65
2022/11/04 03:39:57;;;;;;;0.10;0.10;;;11.10;99.90;;;;;;5057366;28;20056;-65
2022/11/04 03:42:24;;;;;;;0.10;0.10;;;11.10;99.90;;;;;;5066747;28;20048;-65
2022/11/04 03:44:55;;;;;;;1.48;0.85;;;11.00;99.90;;;;;;5069130;28;20041;-65
2022/11/04 03:47:25;;;;;;;0.10;0.10;;;11.00;99.90;;;;;;5054238;28;20500;-65
2022/11/04 03:49:59;;;;;;;0.00;0.00;;;11.00;99.90;;;;;;5050662;28;20103;-65
2022/11/04 03:52:24;;;;;;;0.20;0.20;;;10.90;99.90;;;;;;5052288;28;20102;-65
2022/11/04 03:54:50;;;;;;;0.10;0.10;;;10.90;99.90;;;;;;5060303;28;20150;-65
2022/11/04 03:57:33;;;;;;;0.20;0.20;;;10.90;99.90;;;;;;5068579;28;20474;-65
2022/11/04 04:00:11;;;;;;;0.10;0.10;;;10.90;99.90;;;;;;5059460;28;20507;-65
2022/11/04 04:03:03;;;;;;;0.10;0.10;;;10.80;99.90;;;;;;5069859;28;20392;-65
2022/11/04 04:05:34;;;;;;;0.00;0.00;;;10.80;99.90;;;;;;5065575;28;20561;-65
2022/11/04 04:08:47;;;;;;;0.10;0.10;;;10.80;99.90;;;;;;5052434;28;20045;-65
2022/11/04 04:11:54;;;;;;;0.10;0.10;;;10.80;99.90;;;;;;4987698;28;20042;-65
2022/11/04 04:14:41;;;;;;;0.10;0.10;;;10.80;99.90;;;;;;5058696;28;20045;-65
2022/11/04 04:17:35;;;;;;;0.10;0.10;;;10.80;99.90;;;;;;5054371;28;20040;-65
2022/11/04 04:20:12;;;;;;;0.08;0.08;;;10.80;99.90;;;;;;5047221;28;20056;-65
2022/11/04 04:22:51;;;;;;;0.10;0.10;;;10.80;99.90;;;;;;5034012;28;20048;-64
2022/11/04 04:28:03;;;;;;;0.10;0.10;;;10.80;99.90;;;;;;5063151;28;20041;-65
2022/11/04 04:30:29;;;;;;;0.10;0.10;;;10.80;99.90;;;;;;5063544;28;20144;-65
2022/11/04 04:33:06;;;;;;;0.30;0.30;;;10.80;99.90;;;;;;5054985;28;20127;-65
2022/11/04 04:36:00;;;;;;;0.10;0.10;;;10.80;99.90;;;;;;5063652;28;20571;-65
2022/11/04 04:46:58;;;;;;;0.10;0.10;;;10.80;99.90;;;;;;5071653;28;20056;-64
2022/11/04 04:49:33;;;;;;;0.00;0.00;;;10.80;99.90;;;;;;5067963;28;20045;-64
2022/11/04 04:52:00;;;;;;;0.10;0.10;;;10.70;99.90;;;;;;5061082;28;20052;-65
2022/11/04 04:54:26;;;;;;;0.10;0.10;;;10.70;99.90;;;;;;5071925;28;20538;-65
2022/11/04 04:56:52;;;;;;;0.10;0.10;;;10.70;99.90;;;;;;5061002;28;20045;-64
2022/11/04 04:59:17;;;;;;;0.10;0.10;;;10.70;99.90;;;;;;5049433;28;20082;-65
2022/11/04 05:01:43;;;;;;;0.10;0.10;;;10.70;99.90;;;;;;5063694;28;20047;-65
2022/11/04 05:04:09;;;;;;;0.10;0.10;;;10.70;99.90;;;;;;5054146;28;20045;-65
2022/11/04 05:06:34;;;;;;;0.10;0.10;;;10.70;99.90;;;;;;5071908;28;20071;-64
2022/11/04 05:09:00;;;;;;;0.10;0.10;;;10.60;99.90;;;;;;5063519;28;20082;-65
2022/11/04 05:11:25;;;;;;;2.00;1.17;;;10.60;99.90;;;;;;5067165;28;20044;-65
2022/11/04 05:13:51;;;;;;;0.10;0.10;;;10.60;99.90;;;;;;5059833;28;20135;-65
2022/11/04 05:16:16;;;;;;;0.10;0.10;;;10.60;99.90;;;;;;5070522;28;20559;-64
2022/11/04 05:18:42;;;;;;;0.00;0.00;;;10.60;99.90;;;;;;5073956;28;20037;-65
2022/11/04 05:21:11;;;;;;;0.20;0.20;;;10.60;99.90;;;;;;5063340;28;20041;-65
2022/11/04 05:23:37;;;;;;;0.10;0.10;;;10.50;99.90;;;;;;5043625;28;20044;-65
2022/11/04 05:26:02;;;;;;;0.00;0.00;;;10.50;99.90;;;;;;5072916;28;20390;-65
2022/11/04 05:28:28;;;;;;;0.10;0.10;;;10.50;99.90;;;;;;5064888;28;20073;-65
2022/11/04 05:30:54;;;;;;;0.10;0.10;;;10.50;99.90;;;;;;5062309;28;20111;-65
2022/11/04 05:33:20;;;;;;;0.05;0.05;;;10.50;99.90;;;;;;5054585;28;20149;-65
2022/11/04 05:35:45;;;;;;;0.10;0.10;;;10.50;99.90;;;;;;5069585;28;20495;-65
2022/11/04 05:38:11;;;;;;;0.00;0.00;;;10.50;99.90;;;;;;5065335;28;20044;-65
2022/11/04 05:40:37;;;;;;;0.10;0.10;;;10.40;99.90;;;;;;5055059;28;20044;-65
2022/11/04 05:43:02;;;;;;;0.10;0.10;;;10.40;99.90;;;;;;5057144;28;20780;-65
2022/11/04 05:45:29;;;;;;;0.10;0.10;;;10.40;99.90;;;;;;5057239;28;20044;-65
2022/11/04 05:48:02;;;;;;;0.00;0.00;;;10.40;99.90;;;;;;5072346;28;20060;-65
2022/11/04 05:50:31;;;;;;;0.10;0.10;;;10.40;99.90;;;;;;5066830;28;20064;-65
2022/11/04 05:52:57;;;;;;;0.00;0.00;;;10.40;99.90;;;;;;5052745;28;20055;-65
2022/11/04 05:55:23;;;;;;;0.10;0.10;;;10.40;99.90;;;;;;5053156;28;20044;-65
2022/11/04 05:57:49;;;;;;;1.23;1.17;;;10.40;99.90;;;;;;5066150;28;20432;-65
2022/11/04 06:00:15;;;;;;;0.10;0.10;;;10.40;99.90;;;;;;5052226;28;20049;-65
2022/11/04 06:02:40;;;;;;;0.20;0.20;;;10.30;99.90;;;;;;5070872;28;20044;-64
2022/11/04 06:05:06;;;;;;;0.10;0.10;;;10.30;99.90;;;;;;5070074;28;20044;-65
2022/11/04 06:07:32;;;;;;;0.00;0.00;;;10.30;99.90;;;;;;5065915;28;20044;-65
2022/11/04 06:09:59;;;;;;;0.10;0.10;;;10.30;99.90;;;;;;5063566;28;20054;-64
2022/11/04 06:12:25;;;;;;;0.22;0.22;;;10.20;99.90;;;;;;5040532;28;20553;-65
2022/11/04 06:14:50;;;;;;;0.10;0.10;;;10.10;99.90;;;;;;5053403;28;20068;-65
2022/11/04 06:17:18;;;;;;;0.20;0.20;;;10.10;99.90;;;;;;5035879;28;20527;-65
2022/11/04 06:19:44;;;;;;;0.10;0.10;;;10.10;99.90;;;;;;5066419;28;20127;-65
2022/11/04 06:22:18;;;;;;;0.10;0.10;;;10.10;99.90;;;;;;5059188;28;20456;-65
2022/11/04 06:24:43;;;;;;;;;;;10.10;99.90;;;;;;5070666;28;20052;-65
2022/11/04 06:27:10;;;;;;;0.10;0.10;;;10.00;99.90;;;;;;5052880;28;19926;-65
2022/11/04 06:29:39;;;;;;;0.10;0.10;;;9.90;99.90;;;;;;5058820;28;20053;-65
2022/11/04 06:32:17;;;;;;;0.20;0.20;;;10.00;99.90;;;;;;5058760;28;20400;-65
2022/11/04 06:34:43;;;;;;;0.00;0.00;;;10.00;99.90;;;;;;5070506;28;20396;-65
2022/11/04 06:37:09;;;;;;;0.10;0.10;;;9.90;99.90;;;;;;5050893;28;20036;-65
2022/11/04 06:39:35;;;;;;;0.10;0.10;;;9.90;99.90;;;;;;5052759;28;20067;-65
2022/11/04 06:42:00;;;;;;;0.10;0.10;;;9.90;99.90;;;;;;5070234;28;20044;-65
2022/11/04 06:44:26;;;;;;;0.10;0.10;;;9.80;99.90;;;;;;5069675;28;20047;-65
2022/11/04 06:46:52;;;;;;;0.10;0.10;;;9.80;99.90;;;;;;5053584;28;20476;-64
2022/11/04 06:49:19;;;;;;;0.10;0.10;;;9.80;99.90;;;;;;5055470;28;20040;-64
2022/11/04 06:51:46;;;;;;;0.10;0.10;;;9.80;99.90;;;;;;5059132;28;20094;-64
2022/11/04 06:54:11;;;;;;;0.20;0.20;;;9.70;99.90;;;;;;5071185;28;20055;-64
2022/11/04 06:56:38;;;;;;;0.10;0.10;;;9.70;99.90;;;;;;5047783;28;20045;-64
2022/11/04 06:59:03;;;;;;;0.30;0.30;;;9.60;99.90;;;;;;5063591;28;20037;-65
2022/11/04 07:01:33;;;;;;;0.30;0.30;;;9.70;99.90;;;;;;5051299;28;20962;-65
2022/11/04 07:03:59;;;;;;;0.25;0.25;;;9.70;99.90;;;;;;5071215;28;20048;-65
2022/11/04 07:06:27;;;;;;;0.10;0.10;;;9.70;99.90;;;;;;5056813;28;20480;-64
2022/11/04 07:08:57;;;;;;;0.10;0.10;;;9.60;99.90;;;;;;5068196;28;20052;-65
2022/11/04 07:11:24;;;;;;;0.25;0.25;;;9.50;99.90;;;;;;5070904;28;20044;-65
2022/11/04 07:13:49;;;;;;;0.10;0.10;;;9.50;99.90;;;;;;5051820;28;20051;-65
2022/11/04 07:16:16;;;;;;;0.10;0.10;;;9.40;99.90;;;;;;5050220;28;20041;-64
2022/11/04 07:18:41;;;;;;;0.10;0.10;;;9.50;99.90;;;;;;5053043;28;20044;-65
2022/11/04 07:21:07;;;;;;;2.50;2.25;;;9.40;99.90;;;;;;5053128;28;20439;-65
2022/11/04 07:23:33;;;;;;;0.10;0.10;;;9.50;99.90;;;;;;5038147;28;20048;-64
2022/11/04 07:26:00;;;;;;;0.10;0.10;;;9.50;99.90;;;;;;5065871;28;20129;-65
2022/11/04 07:28:26;;;;;;;0.10;0.10;;;9.40;99.90;;;;;;5050795;28;20052;-65
2022/11/04 07:30:55;;;;;;;0.00;0.00;;;9.40;99.90;;;;;;5053793;28;20045;-65
2022/11/04 07:33:20;;;;;;;0.10;0.10;;;9.40;99.90;;;;;;5044436;28;20053;-65
2022/11/04 07:35:47;;;;;;;0.10;0.10;;;9.40;99.90;;;;;;5051423;28;20048;-65
2022/11/04 07:38:12;;;;;;;0.10;0.10;;;9.30;99.90;;;;;;5043952;28;20050;-65
2022/11/04 07:40:38;;;;;;;0.10;0.10;;;9.40;99.90;;;;;;5061291;28;20101;-64
2022/11/04 07:43:04;;;;;;;0.10;0.10;;;9.40;99.90;;;;;;5059583;28;20464;-64
2022/11/04 07:45:29;;;;;;;0.10;0.10;;;9.40;99.90;;;;;;5057677;28;20094;-65
2022/11/04 07:47:55;;;;;;;0.10;0.10;;;9.40;99.90;;;;;;5039229;28;20051;-64
2022/11/04 07:50:20;;;;;;;0.30;0.30;;;9.50;99.90;;;;;;5037690;28;20483;-65
2022/11/04 07:52:46;;;;;;;0.10;0.10;;;9.50;99.90;;;;;;5064241;28;20064;-64
2022/11/04 07:55:17;;;;;;;0.10;0.10;;;9.50;99.90;;;;;;5064319;28;20119;-65
2022/11/04 07:57:43;;;;;;;0.00;0.00;;;9.50;99.90;;;;;;5053189;28;20078;-64
2022/11/04 08:00:10;;;;;;;0.10;0.10;;;9.50;99.90;;;;;;5068995;28;20543;-65
2022/11/04 08:02:36;;;;;;;0.00;0.00;;;9.60;99.90;;;;;;5070314;28;20049;-65
2022/11/04 08:05:02;;;;;;;0.10;0.10;;;9.60;99.90;;;;;;5064693;28;20044;-65
2022/11/04 08:07:27;;;;;;;0.13;0.13;;;9.70;99.90;;;;;;5049556;28;20083;-65
2022/11/04 08:09:53;;;;;;;0.00;0.00;;;9.70;99.90;;;;;;5066717;28;20043;-64
2022/11/04 08:12:20;;;;;;;0.10;0.10;;;9.70;99.90;;;;;;5060977;28;20044;-65
2022/11/04 08:14:46;;;;;;;0.00;0.00;;;9.80;99.90;;;;;;5037369;28;20044;-65
2022/11/04 08:17:12;;;;;;;0.10;0.10;;;9.90;99.90;;;;;;5069869;28;20139;-65
2022/11/04 08:19:37;;;;;;;1.27;1.08;;;9.90;99.90;;;;;;5065924;28;20032;-65
2022/11/04 08:22:03;;;;;;;0.95;0.85;;;10.00;99.90;;;;;;5049936;28;20118;-65
2022/11/04 08:24:28;;;;;;;0.10;0.10;;;10.10;99.90;;;;;;5049816;28;20091;-65
2022/11/04 08:26:54;;;;;;;0.10;0.10;;;10.20;99.90;;;;;;5068510;28;20066;-65
2022/11/04 08:29:19;;;;;;;0.20;0.20;;;10.30;99.90;;;;;;5047787;28;20048;-65
2022/11/04 08:31:45;;;;;;;0.00;0.00;;;10.40;99.90;;;;;;5050924;28;20051;-65
2022/11/04 08:34:10;;;;;;;0.10;0.10;;;10.50;99.90;;;;;;5055095;28;20047;-64
2022/11/04 08:36:39;;;;;;;0.10;0.10;;;10.60;99.90;;;;;;5062749;28;20130;-64
2022/11/04 08:39:06;;;;;;;0.00;0.00;;;10.60;99.90;;;;;;5062678;28;20053;-65
2022/11/04 08:41:33;;;;;;;0.10;0.10;;;10.60;99.90;;;;;;5067194;28;20384;-65
2022/11/04 08:43:59;;;;;;;0.10;0.10;;;10.70;99.90;;;;;;5059039;28;20064;-64
2022/11/04 08:46:28;;;;;;;0.10;0.10;;;10.70;99.90;;;;;;5051028;28;20114;-65
2022/11/04 08:48:54;;;;;;;0.10;0.10;;;10.70;99.90;;;;;;5063848;28;20049;-65
2022/11/04 08:51:22;;;;;;;0.10;0.10;;;10.60;99.90;;;;;;5052325;28;20040;-65
2022/11/04 08:53:48;;;;;;;0.10;0.10;;;10.70;99.90;;;;;;5045039;28;20052;-65
2022/11/04 08:56:21;;;;;;;0.10;0.10;;;10.60;99.90;;;;;;5036252;28;20052;-64
2022/11/04 08:58:48;;;;;;;0.10;0.10;;;10.60;99.90;;;;;;5070008;28;20044;-64
2022/11/04 09:01:14;;;;;;;0.10;0.10;;;10.70;99.90;;;;;;5058244;28;20036;-63
2022/11/04 09:03:41;;;;;;;0.08;0.08;;;10.70;99.90;;;;;;5061120;28;20117;-63
2022/11/04 09:06:15;;;;;;;0.10;0.10;;;10.70;99.90;;;;;;5067490;28;20476;-64
2022/11/04 09:08:42;;;;;;;0.00;0.00;;;10.80;99.90;;;;;;5067675;28;20047;-64
2022/11/04 09:11:10;;;;;;;0.05;0.05;;;10.90;99.90;;;;;;5065805;28;20099;-64
2022/11/04 09:13:37;;;;;;;0.43;0.43;;;11.00;99.90;;;;;;5065354;28;20197;-64
2022/11/04 09:16:03;;;;;;;0.10;0.10;;;11.10;99.90;;;;;;5052615;28;20043;-64
2022/11/04 09:18:29;;;;;;;0.10;0.10;;;11.10;99.90;;;;;;5064630;28;20408;-64
2022/11/04 09:20:59;;;;;;;0.10;0.10;;;11.20;99.90;;;;;;5065319;28;21040;-64
2022/11/04 09:23:24;;;;;;;0.10;0.10;;;11.30;99.90;;;;;;5070222;28;20064;-64
2022/11/04 09:25:50;;;;;;;0.10;0.10;;;11.30;99.90;;;;;;5071759;28;20491;-64
2022/11/04 09:28:16;;;;;;;0.00;0.00;;;11.40;99.90;;;;;;5052937;28;20049;-64
2022/11/04 09:30:41;;;;;;;0.38;0.38;;;11.50;99.90;;;;;;5053979;28;20059;-64
2022/11/04 09:33:07;;;;;;;0.00;0.00;;;11.60;99.90;;;;;;5065693;28;20045;-64
2022/11/04 09:35:32;;;;;;;0.10;0.10;;;11.70;99.90;;;;;;5052720;28;20037;-64
2022/11/04 09:38:02;;;;;;;0.10;0.10;;;11.80;99.90;;;;;;5053401;28;20041;-64
2022/11/04 09:40:28;;;;;;;0.10;0.10;;;12.10;99.90;;;;;;5069884;28;20044;-64
2022/11/04 09:43:09;;;;;;;0.10;0.10;;;12.40;99.90;;;;;;5039997;28;20114;-64
2022/11/04 09:45:40;;;;;;;0.10;0.10;;;12.60;99.90;;;;;;5058640;28;20059;-64
2022/11/04 09:48:11;;;;;;;1.50;0.88;;;12.70;99.90;;;;;;5059677;28;20442;-64
2022/11/04 09:50:46;;;;;;;0.10;0.10;;;12.60;99.90;;;;;;5060130;28;20098;-64
2022/11/04 09:53:18;;;;;;;0.00;0.00;;;12.40;99.90;;;;;;5060563;28;20053;-64
2022/11/04 09:56:15;;;;;;;0.10;0.10;;;12.00;99.90;;;;;;5058206;28;20055;-64
2022/11/04 09:58:41;;;;;;;0.00;0.00;;;11.70;99.90;;;;;;5028494;28;20061;-64
2022/11/04 10:01:12;;;;;;;0.65;0.65;;;11.50;99.90;;;;;;5052485;28;20053;-64
2022/11/04 10:04:10;;;;;;;0.08;0.08;;;11.40;99.90;;;;;;5065072;28;20127;-64
2022/11/04 10:07:10;;;;;;;0.10;0.10;;;11.20;99.90;;;;;;5065204;28;20095;-64
2022/11/04 10:10:19;;;;;;;0.10;0.10;;;11.20;99.90;;;;;;5026045;28;20110;-64
2022/11/04 10:12:52;;;;;;;0.00;0.00;;;11.20;99.90;;;;;;4969349;28;20046;-64
2022/11/04 10:15:42;;;;;;;0.10;0.10;;;11.20;99.90;;;;;;5054020;28;20056;-63
2022/11/04 10:18:25;;;;;;;0.10;0.10;;;11.20;99.90;;;;;;5056216;28;20053;-64
2022/11/04 10:21:03;;;;;;;0.10;0.10;;;11.20;99.90;;;;;;5059536;28;20060;-64
2022/11/04 10:24:03;;;;;;;0.10;0.10;;;11.20;99.90;;;;;;5067526;28;20107;-63
2022/11/04 10:26:50;;;;;;;0.40;0.40;;;11.20;99.90;;;;;;4998335;28;20058;-64
2022/11/04 10:29:55;;;;;;;0.10;0.10;;;11.40;99.90;;;;;;5066849;28;20066;-64
2022/11/04 10:32:39;;;;;;;;;;;11.60;99.90;;;;;;5062557;28;20098;-64
2022/11/04 10:35:20;;;;;;;0.10;0.10;;;11.50;99.90;;;;;;5051919;28;20010;-64
2022/11/04 10:37:50;;;;;;;0.20;0.20;;;11.60;99.90;;;;;;5069344;28;20048;-64
2022/11/04 10:40:27;;;;;;;0.25;0.25;;;11.50;99.90;;;;;;5058274;28;20083;-64
2022/11/04 10:42:55;;;;;;;0.10;0.10;;;11.50;99.90;;;;;;5061008;28;20048;-64
2022/11/04 10:45:29;;;;;;;0.10;0.10;;;11.60;99.90;;;;;;5055380;28;20044;-64
2022/11/04 10:48:05;;;;;;;0.10;0.10;;;11.60;99.90;;;;;;5067658;28;20407;-64
2022/11/04 10:50:40;;;;;;;0.20;0.20;;;11.70;99.90;;;;;;5058884;28;20047;-64
2022/11/04 10:53:28;;;;;;;0.10;0.10;;;11.80;99.90;;;;;;5050579;28;20044;-64
2022/11/04 10:56:12;;;;;;;0.10;0.10;;;11.80;99.90;;;;;;5070987;28;20127;-64
2022/11/04 10:58:45;;;;;;;0.10;0.10;;;12.00;99.90;;;;;;5065427;28;20117;-64
2022/11/04 11:01:25;;;;;;;0.10;0.10;;;12.10;99.90;;;;;;5066469;28;20044;-64
2022/11/04 11:03:51;;;;;;;0.10;0.10;;;12.20;99.90;;;;;;5065370;28;20048;-64
2022/11/04 11:06:31;;;;;;;0.10;0.10;;;12.40;99.90;;;;;;5068964;28;20044;-64
2022/11/04 11:09:42;;;;;;;0.10;0.10;;;12.60;99.90;;;;;;5062315;28;20135;-64
2022/11/04 11:12:14;;;;;;;0.10;0.10;;;12.70;99.90;;;;;;5055034;28;20056;-64
2022/11/04 11:14:41;;;;;;;0.20;0.20;;;12.80;99.90;;;;;;5047554;28;20052;-64
2022/11/04 11:17:32;;;;;;;0.00;0.00;;;12.70;99.90;;;;;;5070260;28;20127;-64
2022/11/04 11:20:15;;;;;;;0.25;0.25;;;12.70;99.90;;;;;;5060922;28;20097;-64
2022/11/04 11:22:46;;;;;;;0.10;0.10;;;12.70;99.90;;;;;;5058287;28;20037;-64
2022/11/04 11:25:18;;;;;;;0.05;0.05;;;12.70;99.90;;;;;;5069895;28;20048;-64
2022/11/04 11:27:51;;;;;;;15.50;1.35;;;12.70;99.90;;;;;;5057729;28;20045;-64
2022/11/04 11:30:30;;;;;;;0.08;0.08;;;12.90;99.90;;;;;;5054889;28;20070;-64
2022/11/04 11:33:03;;;;;;;0.10;0.10;;;13.20;99.90;;;;;;5060737;28;20044;-64
2022/11/04 11:35:33;;;;;;;0.10;0.10;;;13.40;99.90;;;;;;5050074;28;20044;-64
2022/11/04 11:38:02;;;;;;;5.68;0.65;;;13.30;99.90;;;;;;5062345;28;20381;-64
2022/11/04 11:40:34;;;;;;;0.10;0.10;;;13.10;99.90;;;;;;5050260;28;20052;-64
2022/11/04 11:43:00;;;;;;;0.10;0.10;;;12.90;99.90;;;;;;5058126;28;20048;-64
2022/11/04 11:45:27;;;;;;;0.00;0.00;;;12.90;99.90;;;;;;5064244;28;20056;-64
2022/11/04 11:47:56;;;;;;;0.10;0.10;;;12.80;99.90;;;;;;5070270;28;20043;-64
2022/11/04 11:50:33;;;;;;;0.10;0.10;;;13.20;99.90;;;;;;5068348;28;20044;-64
2022/11/04 11:53:22;;;;;;;0.00;0.00;;;13.40;99.90;;;;;;5052611;28;20044;-64
2022/11/04 11:56:14;;;;;;;0.13;0.13;;;13.60;99.90;;;;;;5067908;28;20120;-64
2022/11/04 11:58:50;;;;;;;0.10;0.10;;;13.60;99.90;;;;;;5053621;28;20500;-64
2022/11/04 12:01:41;;;;;;;0.10;0.10;;;13.70;99.90;;;;;;5045965;28;20500;-64
2022/11/04 12:04:07;;;;;;;0.10;0.10;;;13.80;99.90;;;;;;5059971;28;20478;-64
2022/11/04 12:06:35;;;;;;;0.10;0.10;;;13.80;99.90;;;;;;5065071;28;20041;-64
2022/11/04 12:09:41;;;;;;;0.00;0.00;;;13.60;99.90;;;;;;5070604;28;20040;-64
2022/11/04 12:12:35;;;;;;;0.10;0.10;;;13.50;99.90;;;;;;5056788;28;20061;-64
2022/11/04 12:15:00;;;;;;;;;;;13.60;99.90;;;;;;5041417;28;20094;-64
2022/11/04 12:17:47;;;;;;;0.10;0.10;;;13.70;99.90;;;;;;5069592;28;19924;-64
2022/11/04 12:20:25;;;;;;;0.30;0.30;;;13.90;99.90;;;;;;5070361;28;20814;-64
2022/11/04 12:23:25;;;;;;;0.13;0.13;;;14.10;99.90;;;;;;5070412;28;20048;-64
2022/11/04 12:26:12;;;;;;;0.10;0.10;;;14.30;99.90;;;;;;5054997;28;20109;-64
2022/11/04 12:29:15;;;;;;;0.00;0.00;;;14.50;99.90;;;;;;5049803;28;20488;-64
2022/11/04 12:31:54;;;;;;;0.10;0.10;;;14.90;99.90;;;;;;5056481;28;20495;-64
2022/11/04 12:34:48;;;;;;;0.30;0.30;;;15.10;99.90;;;;;;5060206;28;20041;-64
2022/11/04 12:37:34;;;;;;;0.10;0.10;;;15.50;99.90;;;;;;5062906;28;20151;-64
2022/11/04 12:40:08;;;;;;;2.45;1.75;;;15.50;99.90;;;;;;5058248;28;20449;-64
2022/11/04 12:42:37;;;;;;;0.10;0.10;;;15.70;99.90;;;;;;5041327;28;20093;-64
2022/11/04 12:45:17;;;;;;;0.10;0.10;;;15.50;99.90;;;;;;5074286;28;20336;-64
2022/11/04 12:47:44;;;;;;;0.50;0.50;;;15.50;99.90;;;;;;5066852;28;20067;-64
2022/11/04 12:50:25;;;;;;;3.30;1.10;;;15.80;99.90;;;;;;5058888;28;20112;-64
2022/11/04 12:52:56;;;;;;;2.45;1.30;;;15.90;99.90;;;;;;5072060;28;20121;-64
2022/11/04 12:55:48;;;;;;;0.10;0.10;;;16.10;99.90;;;;;;5062580;28;20502;-64
2022/11/04 12:59:11;;;;;;;0.00;0.00;;;16.30;99.90;;;;;;5067679;28;20052;-64
2022/11/04 13:01:45;;;;;;;0.00;0.00;;;16.30;99.90;;;;;;5007761;28;20058;-64
2022/11/04 13:04:23;;;;;;;0.10;0.10;;;16.70;99.90;;;;;;5010461;28;20033;-64
2022/11/04 13:06:59;;;;;;;0.00;0.00;;;16.80;99.90;;;;;;5045635;28;20098;-64
2022/11/04 13:09:38;;;;;;;0.10;0.10;;;17.00;99.90;;;;;;5064959;28;20045;-64
2022/11/04 13:12:30;;;;;;;0.25;0.25;;;16.90;99.90;;;;;;5059232;28;20586;-64
2022/11/04 13:15:21;;;;;;;0.10;0.10;;;17.00;99.90;;;;;;5072978;28;20127;-64
2022/11/04 13:17:50;;;;;;;0.00;0.00;;;16.90;99.90;;;;;;5064174;28;20049;-64
2022/11/04 13:20:43;;;;;;;0.00;0.00;;;16.70;99.90;;;;;;5057670;28;20511;-65
2022/11/04 13:23:18;;;;;;;0.30;0.30;;;16.50;99.90;;;;;;5062307;28;20124;-64
2022/11/04 13:25:46;;;;;;;0.57;0.57;;;16.20;99.90;;;;;;5061713;28;20480;-64
2022/11/04 13:28:19;;;;;;;0.10;0.10;;;15.80;99.90;;;;;;5071622;28;20049;-64
2022/11/04 13:31:01;;;;;;;0.10;0.10;;;15.50;99.90;;;;;;5067903;28;20045;-64
2022/11/04 13:33:31;;;;;;;0.00;0.00;;;15.20;99.90;;;;;;5061185;28;20049;-64
2022/11/04 13:36:29;;;;;;;0.10;0.10;;;15.00;99.90;;;;;;5051518;28;20128;-64
2022/11/04 13:39:11;;;;;;;0.15;0.15;;;14.90;99.90;;;;;;5057085;28;20057;-64
2022/11/04 13:41:37;;;;;;;7.75;1.65;;;14.90;99.90;;;;;;5068097;28;20480;-64
2022/11/04 13:44:12;;;;;;;0.20;0.20;;;14.70;99.90;;;;;;5052522;28;20044;-64
2022/11/04 13:46:38;;;;;;;0.10;0.10;;;14.60;99.90;;;;;;5067049;28;20056;-64